sensor_id;sensor_type;location;lat;lon;timestamp;P1;durP1;ratioP1;P2;durP2;ratioP2
59189;SDS011;50749;51.636;4.948;2022-12-20T00:01:18;2.95;;;1.40;;
59189;SDS011;50749;51.636;4.948;2022-12-20T00:03:48;2.10;;;1.20;;
59189;SDS011;50749;51.636;4.948;2022-12-20T00:06:16;4.43;;;2.38;;
59189;SDS011;50749;51.636;4.948;2022-12-20T00:08:43;2.28;;;1.20;;
59189;SDS011;50749;51.636;4.948;2022-12-20T00:11:09;2.38;;;1.10;;
59189;SDS011;50749;51.636;4.948;2022-12-20T00:13:36;4.38;;;1.30;;
59189;SDS011;50749;51.636;4.948;2022-12-20T00:16:09;3.08;;;1.50;;
59189;SDS011;50749;51.636;4.948;2022-12-20T00:21:03;3.08;;;1.20;;
59189;SDS011;50749;51.636;4.948;2022-12-20T00:23:32;2.17;;;1.17;;
59189;SDS011;50749;51.636;4.948;2022-12-20T00:25:59;2.72;;;1.20;;
59189;SDS011;50749;51.636;4.948;2022-12-20T00:28:37;2.22;;;1.23;;
59189;SDS011;50749;51.636;4.948;2022-12-20T00:31:04;1.55;;;1.00;;
59189;SDS011;50749;51.636;4.948;2022-12-20T00:33:32;2.38;;;1.27;;
59189;SDS011;50749;51.636;4.948;2022-12-20T00:35:58;5.88;;;1.52;;
59189;SDS011;50749;51.636;4.948;2022-12-20T00:38:25;3.15;;;1.25;;
59189;SDS011;50749;51.636;4.948;2022-12-20T00:41:04;2.38;;;1.27;;
59189;SDS011;50749;51.636;4.948;2022-12-20T00:43:33;3.95;;;1.23;;
59189;SDS011;50749;51.636;4.948;2022-12-20T00:46:00;3.90;;;1.30;;
59189;SDS011;50749;51.636;4.948;2022-12-20T00:48:33;2.30;;;1.20;;
59189;SDS011;50749;51.636;4.948;2022-12-20T00:51:01;3.35;;;1.15;;
59189;SDS011;50749;51.636;4.948;2022-12-20T00:53:30;1.92;;;1.10;;
59189;SDS011;50749;51.636;4.948;2022-12-20T00:55:57;2.13;;;1.33;;
59189;SDS011;50749;51.636;4.948;2022-12-20T00:58:25;2.88;;;1.30;;
59189;SDS011;50749;51.636;4.948;2022-12-20T01:00:51;2.90;;;1.20;;
59189;SDS011;50749;51.636;4.948;2022-12-20T01:03:19;2.08;;;1.00;;
59189;SDS011;50749;51.636;4.948;2022-12-20T01:05:52;2.17;;;1.00;;
59189;SDS011;50749;51.636;4.948;2022-12-20T01:08:23;2.03;;;1.10;;
59189;SDS011;50749;51.636;4.948;2022-12-20T01:11:03;3.08;;;1.20;;
59189;SDS011;50749;51.636;4.948;2022-12-20T01:13:38;2.05;;;1.30;;
59189;SDS011;50749;51.636;4.948;2022-12-20T01:16:15;3.38;;;1.10;;
59189;SDS011;50749;51.636;4.948;2022-12-20T01:18:44;2.47;;;1.48;;
59189;SDS011;50749;51.636;4.948;2022-12-20T01:21:10;1.90;;;1.10;;
59189;SDS011;50749;51.636;4.948;2022-12-20T01:23:38;2.63;;;1.02;;
59189;SDS011;50749;51.636;4.948;2022-12-20T01:26:10;2.75;;;1.38;;
59189;SDS011;50749;51.636;4.948;2022-12-20T01:28:43;1.90;;;1.23;;
59189;SDS011;50749;51.636;4.948;2022-12-20T01:31:13;2.22;;;1.25;;
59189;SDS011;50749;51.636;4.948;2022-12-20T01:33:41;2.95;;;0.93;;
59189;SDS011;50749;51.636;4.948;2022-12-20T01:36:13;2.20;;;1.20;;
59189;SDS011;50749;51.636;4.948;2022-12-20T01:38:43;3.00;;;1.40;;
59189;SDS011;50749;51.636;4.948;2022-12-20T01:41:19;2.53;;;1.23;;
59189;SDS011;50749;51.636;4.948;2022-12-20T01:46:14;2.70;;;1.50;;
59189;SDS011;50749;51.636;4.948;2022-12-20T01:48:41;1.83;;;1.35;;
59189;SDS011;50749;51.636;4.948;2022-12-20T01:51:10;3.45;;;1.23;;
59189;SDS011;50749;51.636;4.948;2022-12-20T01:53:38;2.80;;;1.30;;
59189;SDS011;50749;51.636;4.948;2022-12-20T01:56:04;2.08;;;1.02;;
59189;SDS011;50749;51.636;4.948;2022-12-20T01:58:32;2.40;;;1.20;;
59189;SDS011;50749;51.636;4.948;2022-12-20T02:01:01;2.67;;;1.42;;
59189;SDS011;50749;51.636;4.948;2022-12-20T02:03:27;2.72;;;1.15;;
59189;SDS011;50749;51.636;4.948;2022-12-20T02:05:58;2.60;;;1.02;;
59189;SDS011;50749;51.636;4.948;2022-12-20T02:08:41;2.33;;;1.00;;
59189;SDS011;50749;51.636;4.948;2022-12-20T02:13:50;1.35;;;0.90;;
59189;SDS011;50749;51.636;4.948;2022-12-20T02:16:41;2.20;;;1.40;;
59189;SDS011;50749;51.636;4.948;2022-12-20T02:22:25;1.65;;;1.13;;
59189;SDS011;50749;51.636;4.948;2022-12-20T02:30:59;3.50;;;1.10;;
59189;SDS011;50749;51.636;4.948;2022-12-20T02:33:29;1.40;;;0.90;;
59189;SDS011;50749;51.636;4.948;2022-12-20T02:35:55;2.30;;;1.77;;
59189;SDS011;50749;51.636;4.948;2022-12-20T02:38:32;2.30;;;1.00;;
59189;SDS011;50749;51.636;4.948;2022-12-20T02:41:05;2.10;;;1.10;;
59189;SDS011;50749;51.636;4.948;2022-12-20T02:43:36;2.28;;;1.00;;
59189;SDS011;50749;51.636;4.948;2022-12-20T02:46:25;2.03;;;0.90;;
59189;SDS011;50749;51.636;4.948;2022-12-20T02:48:51;2.00;;;1.00;;
59189;SDS011;50749;51.636;4.948;2022-12-20T02:51:21;3.05;;;1.20;;
59189;SDS011;50749;51.636;4.948;2022-12-20T02:53:49;2.58;;;1.10;;
59189;SDS011;50749;51.636;4.948;2022-12-20T02:56:19;1.70;;;0.88;;
59189;SDS011;50749;51.636;4.948;2022-12-20T02:59:00;3.47;;;1.10;;
59189;SDS011;50749;51.636;4.948;2022-12-20T03:01:37;2.30;;;1.20;;
59189;SDS011;50749;51.636;4.948;2022-12-20T03:04:05;3.08;;;1.13;;
59189;SDS011;50749;51.636;4.948;2022-12-20T03:06:32;1.90;;;1.10;;
59189;SDS011;50749;51.636;4.948;2022-12-20T03:08:58;2.20;;;1.13;;
59189;SDS011;50749;51.636;4.948;2022-12-20T03:11:26;1.60;;;1.00;;
59189;SDS011;50749;51.636;4.948;2022-12-20T03:13:52;1.60;;;1.00;;
59189;SDS011;50749;51.636;4.948;2022-12-20T03:16:19;1.95;;;0.98;;
59189;SDS011;50749;51.636;4.948;2022-12-20T03:18:46;1.98;;;1.23;;
59189;SDS011;50749;51.636;4.948;2022-12-20T03:21:12;2.33;;;1.30;;
59189;SDS011;50749;51.636;4.948;2022-12-20T03:23:38;2.88;;;1.10;;
59189;SDS011;50749;51.636;4.948;2022-12-20T03:26:04;1.70;;;1.20;;
59189;SDS011;50749;51.636;4.948;2022-12-20T03:28:30;1.45;;;0.82;;
59189;SDS011;50749;51.636;4.948;2022-12-20T03:30:57;1.70;;;0.98;;
59189;SDS011;50749;51.636;4.948;2022-12-20T03:33:23;2.08;;;0.93;;
59189;SDS011;50749;51.636;4.948;2022-12-20T03:35:49;2.33;;;1.20;;
59189;SDS011;50749;51.636;4.948;2022-12-20T03:38:15;2.35;;;1.17;;
59189;SDS011;50749;51.636;4.948;2022-12-20T03:40:41;2.45;;;0.82;;
59189;SDS011;50749;51.636;4.948;2022-12-20T03:43:07;2.25;;;1.20;;
59189;SDS011;50749;51.636;4.948;2022-12-20T03:45:33;2.90;;;1.33;;
59189;SDS011;50749;51.636;4.948;2022-12-20T03:48:02;2.25;;;1.10;;
59189;SDS011;50749;51.636;4.948;2022-12-20T03:50:30;1.85;;;1.00;;
59189;SDS011;50749;51.636;4.948;2022-12-20T03:52:56;2.10;;;1.05;;
59189;SDS011;50749;51.636;4.948;2022-12-20T03:55:22;2.53;;;1.10;;
59189;SDS011;50749;51.636;4.948;2022-12-20T03:57:48;2.05;;;1.17;;
59189;SDS011;50749;51.636;4.948;2022-12-20T04:00:17;1.50;;;1.00;;
59189;SDS011;50749;51.636;4.948;2022-12-20T04:02:44;1.55;;;1.00;;
59189;SDS011;50749;51.636;4.948;2022-12-20T04:05:11;2.13;;;1.05;;
59189;SDS011;50749;51.636;4.948;2022-12-20T04:07:37;2.10;;;1.00;;
59189;SDS011;50749;51.636;4.948;2022-12-20T04:10:07;2.13;;;1.13;;
59189;SDS011;50749;51.636;4.948;2022-12-20T04:12:33;1.23;;;0.80;;
59189;SDS011;50749;51.636;4.948;2022-12-20T04:14:59;1.70;;;1.00;;
59189;SDS011;50749;51.636;4.948;2022-12-20T04:17:25;2.10;;;0.93;;
59189;SDS011;50749;51.636;4.948;2022-12-20T04:19:51;2.40;;;1.13;;
59189;SDS011;50749;51.636;4.948;2022-12-20T04:22:17;2.58;;;1.02;;
59189;SDS011;50749;51.636;4.948;2022-12-20T04:24:44;1.38;;;0.82;;
59189;SDS011;50749;51.636;4.948;2022-12-20T04:27:10;1.17;;;0.88;;
59189;SDS011;50749;51.636;4.948;2022-12-20T04:29:36;2.20;;;0.90;;
59189;SDS011;50749;51.636;4.948;2022-12-20T04:32:04;3.83;;;0.82;;
59189;SDS011;50749;51.636;4.948;2022-12-20T04:34:32;1.92;;;0.95;;
59189;SDS011;50749;51.636;4.948;2022-12-20T04:36:57;1.45;;;0.80;;
59189;SDS011;50749;51.636;4.948;2022-12-20T04:39:24;1.35;;;0.75;;
59189;SDS011;50749;51.636;4.948;2022-12-20T04:41:52;3.70;;;0.80;;
59189;SDS011;50749;51.636;4.948;2022-12-20T04:44:18;2.80;;;0.80;;
59189;SDS011;50749;51.636;4.948;2022-12-20T04:46:44;2.22;;;1.00;;
59189;SDS011;50749;51.636;4.948;2022-12-20T04:49:11;1.73;;;0.80;;
59189;SDS011;50749;51.636;4.948;2022-12-20T04:51:37;1.42;;;0.80;;
59189;SDS011;50749;51.636;4.948;2022-12-20T04:54:03;1.55;;;0.98;;
59189;SDS011;50749;51.636;4.948;2022-12-20T04:56:31;1.13;;;0.88;;
59189;SDS011;50749;51.636;4.948;2022-12-20T04:58:57;2.20;;;1.00;;
59189;SDS011;50749;51.636;4.948;2022-12-20T05:01:24;1.60;;;0.77;;
59189;SDS011;50749;51.636;4.948;2022-12-20T05:03:50;1.73;;;0.70;;
59189;SDS011;50749;51.636;4.948;2022-12-20T05:06:17;1.95;;;0.80;;
59189;SDS011;50749;51.636;4.948;2022-12-20T05:08:44;2.35;;;0.80;;
59189;SDS011;50749;51.636;4.948;2022-12-20T05:11:10;1.20;;;0.60;;
59189;SDS011;50749;51.636;4.948;2022-12-20T05:13:36;1.92;;;0.80;;
59189;SDS011;50749;51.636;4.948;2022-12-20T05:16:02;2.17;;;0.68;;
59189;SDS011;50749;51.636;4.948;2022-12-20T05:18:28;1.33;;;0.70;;
59189;SDS011;50749;51.636;4.948;2022-12-20T05:20:55;1.65;;;0.90;;
59189;SDS011;50749;51.636;4.948;2022-12-20T05:23:44;2.00;;;1.10;;
59189;SDS011;50749;51.636;4.948;2022-12-20T05:26:30;3.17;;;0.90;;
59189;SDS011;50749;51.636;4.948;2022-12-20T05:28:58;1.80;;;0.80;;
59189;SDS011;50749;51.636;4.948;2022-12-20T05:31:25;1.40;;;0.80;;
59189;SDS011;50749;51.636;4.948;2022-12-20T05:33:51;2.40;;;0.98;;
59189;SDS011;50749;51.636;4.948;2022-12-20T05:36:17;1.30;;;0.80;;
59189;SDS011;50749;51.636;4.948;2022-12-20T05:38:43;2.15;;;1.10;;
59189;SDS011;50749;51.636;4.948;2022-12-20T05:41:08;1.35;;;0.80;;
59189;SDS011;50749;51.636;4.948;2022-12-20T05:43:35;1.77;;;0.82;;
59189;SDS011;50749;51.636;4.948;2022-12-20T05:46:00;1.67;;;0.70;;
59189;SDS011;50749;51.636;4.948;2022-12-20T05:48:30;1.65;;;0.95;;
59189;SDS011;50749;51.636;4.948;2022-12-20T05:50:55;1.38;;;0.70;;
59189;SDS011;50749;51.636;4.948;2022-12-20T05:53:21;1.55;;;0.60;;
59189;SDS011;50749;51.636;4.948;2022-12-20T05:55:51;1.90;;;0.70;;
59189;SDS011;50749;51.636;4.948;2022-12-20T05:58:18;1.50;;;0.88;;
59189;SDS011;50749;51.636;4.948;2022-12-20T06:00:45;1.70;;;0.70;;
59189;SDS011;50749;51.636;4.948;2022-12-20T06:03:13;7.43;;;1.95;;
59189;SDS011;50749;51.636;4.948;2022-12-20T06:05:43;9.88;;;2.30;;
59189;SDS011;50749;51.636;4.948;2022-12-20T06:08:10;11.32;;;2.63;;
59189;SDS011;50749;51.636;4.948;2022-12-20T06:10:37;10.68;;;2.85;;
59189;SDS011;50749;51.636;4.948;2022-12-20T06:13:05;8.85;;;2.70;;
59189;SDS011;50749;51.636;4.948;2022-12-20T06:15:31;11.70;;;2.65;;
59189;SDS011;50749;51.636;4.948;2022-12-20T06:17:57;13.88;;;3.70;;
59189;SDS011;50749;51.636;4.948;2022-12-20T06:20:23;8.82;;;2.70;;
59189;SDS011;50749;51.636;4.948;2022-12-20T06:22:49;9.98;;;2.55;;
59189;SDS011;50749;51.636;4.948;2022-12-20T06:25:15;7.70;;;2.25;;
59189;SDS011;50749;51.636;4.948;2022-12-20T06:27:41;7.10;;;2.30;;
59189;SDS011;50749;51.636;4.948;2022-12-20T06:30:08;7.88;;;2.92;;
59189;SDS011;50749;51.636;4.948;2022-12-20T06:32:37;5.95;;;1.50;;
59189;SDS011;50749;51.636;4.948;2022-12-20T06:35:05;4.68;;;1.90;;
59189;SDS011;50749;51.636;4.948;2022-12-20T06:37:31;5.50;;;1.52;;
59189;SDS011;50749;51.636;4.948;2022-12-20T06:39:57;4.72;;;1.58;;
59189;SDS011;50749;51.636;4.948;2022-12-20T06:42:24;4.03;;;1.70;;
59189;SDS011;50749;51.636;4.948;2022-12-20T06:44:50;6.45;;;1.85;;
59189;SDS011;50749;51.636;4.948;2022-12-20T06:47:16;4.75;;;1.42;;
59189;SDS011;50749;51.636;4.948;2022-12-20T06:49:42;3.95;;;1.30;;
59189;SDS011;50749;51.636;4.948;2022-12-20T06:52:08;6.93;;;1.48;;
59189;SDS011;50749;51.636;4.948;2022-12-20T06:54:34;4.30;;;1.48;;
59189;SDS011;50749;51.636;4.948;2022-12-20T06:57:00;4.70;;;1.58;;
59189;SDS011;50749;51.636;4.948;2022-12-20T06:59:25;5.53;;;1.60;;
59189;SDS011;50749;51.636;4.948;2022-12-20T07:01:52;5.30;;;1.45;;
59189;SDS011;50749;51.636;4.948;2022-12-20T07:04:17;4.97;;;1.83;;
59189;SDS011;50749;51.636;4.948;2022-12-20T07:06:45;4.20;;;1.38;;
59189;SDS011;50749;51.636;4.948;2022-12-20T07:09:11;4.40;;;1.58;;
59189;SDS011;50749;51.636;4.948;2022-12-20T07:11:37;9.20;;;2.03;;
59189;SDS011;50749;51.636;4.948;2022-12-20T07:14:04;7.78;;;1.63;;
59189;SDS011;50749;51.636;4.948;2022-12-20T07:16:30;7.45;;;1.38;;
59189;SDS011;50749;51.636;4.948;2022-12-20T07:18:56;4.82;;;1.10;;
59189;SDS011;50749;51.636;4.948;2022-12-20T07:21:22;3.70;;;1.40;;
59189;SDS011;50749;51.636;4.948;2022-12-20T07:23:48;4.43;;;1.70;;
59189;SDS011;50749;51.636;4.948;2022-12-20T07:26:14;5.88;;;1.50;;
59189;SDS011;50749;51.636;4.948;2022-12-20T07:28:40;3.78;;;1.25;;
59189;SDS011;50749;51.636;4.948;2022-12-20T07:31:07;3.78;;;1.40;;
59189;SDS011;50749;51.636;4.948;2022-12-20T07:33:37;4.22;;;1.50;;
59189;SDS011;50749;51.636;4.948;2022-12-20T07:36:05;2.13;;;1.00;;
59189;SDS011;50749;51.636;4.948;2022-12-20T07:38:34;3.60;;;1.23;;
59189;SDS011;50749;51.636;4.948;2022-12-20T07:41:00;4.00;;;1.48;;
59189;SDS011;50749;51.636;4.948;2022-12-20T07:43:32;3.22;;;1.10;;
59189;SDS011;50749;51.636;4.948;2022-12-20T07:46:00;2.53;;;1.13;;
59189;SDS011;50749;51.636;4.948;2022-12-20T07:48:29;3.30;;;1.25;;
59189;SDS011;50749;51.636;4.948;2022-12-20T07:50:57;3.53;;;1.38;;
59189;SDS011;50749;51.636;4.948;2022-12-20T07:53:31;3.85;;;1.17;;
59189;SDS011;50749;51.636;4.948;2022-12-20T07:56:01;2.38;;;1.17;;
59189;SDS011;50749;51.636;4.948;2022-12-20T07:58:31;1.85;;;0.98;;
59189;SDS011;50749;51.636;4.948;2022-12-20T08:01:02;3.00;;;1.40;;
59189;SDS011;50749;51.636;4.948;2022-12-20T08:03:30;7.78;;;1.13;;
59189;SDS011;50749;51.636;4.948;2022-12-20T08:06:01;2.65;;;1.20;;
59189;SDS011;50749;51.636;4.948;2022-12-20T08:08:33;2.67;;;1.45;;
59189;SDS011;50749;51.636;4.948;2022-12-20T08:11:03;5.13;;;1.52;;
59189;SDS011;50749;51.636;4.948;2022-12-20T08:13:33;2.45;;;1.10;;
59189;SDS011;50749;51.636;4.948;2022-12-20T08:16:00;3.22;;;1.05;;
59189;SDS011;50749;51.636;4.948;2022-12-20T08:18:26;3.38;;;1.30;;
59189;SDS011;50749;51.636;4.948;2022-12-20T08:20:53;3.22;;;1.23;;
59189;SDS011;50749;51.636;4.948;2022-12-20T08:23:18;3.10;;;1.17;;
59189;SDS011;50749;51.636;4.948;2022-12-20T08:25:44;2.78;;;0.95;;
59189;SDS011;50749;51.636;4.948;2022-12-20T08:28:10;3.67;;;1.48;;
59189;SDS011;50749;51.636;4.948;2022-12-20T08:30:36;1.98;;;1.05;;
59189;SDS011;50749;51.636;4.948;2022-12-20T08:33:02;3.35;;;0.98;;
59189;SDS011;50749;51.636;4.948;2022-12-20T08:35:30;3.72;;;1.20;;
59189;SDS011;50749;51.636;4.948;2022-12-20T08:37:56;4.40;;;1.10;;
59189;SDS011;50749;51.636;4.948;2022-12-20T08:40:22;3.13;;;0.90;;
59189;SDS011;50749;51.636;4.948;2022-12-20T08:42:49;3.55;;;0.90;;
59189;SDS011;50749;51.636;4.948;2022-12-20T08:45:15;2.65;;;1.17;;
59189;SDS011;50749;51.636;4.948;2022-12-20T08:47:41;1.90;;;0.90;;
59189;SDS011;50749;51.636;4.948;2022-12-20T08:50:08;2.13;;;0.82;;
59189;SDS011;50749;51.636;4.948;2022-12-20T08:52:34;2.88;;;1.30;;
59189;SDS011;50749;51.636;4.948;2022-12-20T08:55:01;4.18;;;1.45;;
59189;SDS011;50749;51.636;4.948;2022-12-20T08:57:27;2.35;;;1.00;;
59189;SDS011;50749;51.636;4.948;2022-12-20T08:59:53;2.25;;;1.30;;
59189;SDS011;50749;51.636;4.948;2022-12-20T09:02:21;2.17;;;1.05;;
59189;SDS011;50749;51.636;4.948;2022-12-20T09:04:47;2.42;;;1.08;;
59189;SDS011;50749;51.636;4.948;2022-12-20T09:07:14;2.53;;;0.80;;
59189;SDS011;50749;51.636;4.948;2022-12-20T09:09:40;3.22;;;1.17;;
59189;SDS011;50749;51.636;4.948;2022-12-20T09:12:06;4.47;;;1.00;;
59189;SDS011;50749;51.636;4.948;2022-12-20T09:14:32;2.88;;;1.30;;
59189;SDS011;50749;51.636;4.948;2022-12-20T09:16:58;2.80;;;1.10;;
59189;SDS011;50749;51.636;4.948;2022-12-20T09:19:25;2.33;;;0.90;;
59189;SDS011;50749;51.636;4.948;2022-12-20T09:21:52;2.33;;;0.90;;
59189;SDS011;50749;51.636;4.948;2022-12-20T09:24:20;3.22;;;1.67;;
59189;SDS011;50749;51.636;4.948;2022-12-20T09:26:46;2.08;;;0.90;;
59189;SDS011;50749;51.636;4.948;2022-12-20T09:29:13;2.88;;;1.00;;
59189;SDS011;50749;51.636;4.948;2022-12-20T09:31:38;2.88;;;0.90;;
59189;SDS011;50749;51.636;4.948;2022-12-20T09:34:05;1.42;;;0.60;;
59189;SDS011;50749;51.636;4.948;2022-12-20T09:36:35;2.67;;;1.48;;
59189;SDS011;50749;51.636;4.948;2022-12-20T09:39:01;1.83;;;0.90;;
59189;SDS011;50749;51.636;4.948;2022-12-20T09:41:28;2.70;;;1.05;;
59189;SDS011;50749;51.636;4.948;2022-12-20T09:44:02;2.40;;;1.10;;
59189;SDS011;50749;51.636;4.948;2022-12-20T09:46:38;2.78;;;1.00;;
59189;SDS011;50749;51.636;4.948;2022-12-20T09:49:05;1.92;;;0.90;;
59189;SDS011;50749;51.636;4.948;2022-12-20T09:59:57;3.55;;;1.35;;
59189;SDS011;50749;51.636;4.948;2022-12-20T10:02:24;1.50;;;0.90;;
59189;SDS011;50749;51.636;4.948;2022-12-20T10:04:54;1.83;;;0.80;;
59189;SDS011;50749;51.636;4.948;2022-12-20T10:07:30;2.33;;;1.20;;
59189;SDS011;50749;51.636;4.948;2022-12-20T10:13:01;4.10;;;0.90;;
59189;SDS011;50749;51.636;4.948;2022-12-20T10:16:16;3.25;;;1.30;;
59189;SDS011;50749;51.636;4.948;2022-12-20T10:21:39;3.08;;;0.93;;
59189;SDS011;50749;51.636;4.948;2022-12-20T10:24:11;3.03;;;0.85;;
59189;SDS011;50749;51.636;4.948;2022-12-20T10:26:43;2.15;;;0.80;;
59189;SDS011;50749;51.636;4.948;2022-12-20T10:29:10;1.92;;;0.80;;
59189;SDS011;50749;51.636;4.948;2022-12-20T10:31:36;2.10;;;1.10;;
59189;SDS011;50749;51.636;4.948;2022-12-20T10:34:03;1.75;;;1.00;;
59189;SDS011;50749;51.636;4.948;2022-12-20T10:36:32;3.05;;;1.25;;
59189;SDS011;50749;51.636;4.948;2022-12-20T10:39:04;2.42;;;0.80;;
59189;SDS011;50749;51.636;4.948;2022-12-20T10:41:33;3.45;;;1.08;;
59189;SDS011;50749;51.636;4.948;2022-12-20T10:44:23;1.75;;;0.90;;
59189;SDS011;50749;51.636;4.948;2022-12-20T10:49:30;1.92;;;0.82;;
59189;SDS011;50749;51.636;4.948;2022-12-20T10:54:35;1.60;;;0.80;;
59189;SDS011;50749;51.636;4.948;2022-12-20T10:59:41;2.30;;;0.93;;
59189;SDS011;50749;51.636;4.948;2022-12-20T11:07:51;2.42;;;0.90;;
59189;SDS011;50749;51.636;4.948;2022-12-20T11:10:27;2.33;;;0.98;;
59189;SDS011;50749;51.636;4.948;2022-12-20T11:12:58;2.20;;;0.80;;
59189;SDS011;50749;51.636;4.948;2022-12-20T11:15:26;1.40;;;0.85;;
59189;SDS011;50749;51.636;4.948;2022-12-20T11:18:18;2.63;;;0.88;;
59189;SDS011;50749;51.636;4.948;2022-12-20T11:23:38;1.90;;;0.93;;
59189;SDS011;50749;51.636;4.948;2022-12-20T11:31:56;1.98;;;0.60;;
59189;SDS011;50749;51.636;4.948;2022-12-20T11:34:44;2.38;;;0.90;;
59189;SDS011;50749;51.636;4.948;2022-12-20T11:37:22;2.45;;;0.90;;
59189;SDS011;50749;51.636;4.948;2022-12-20T11:39:53;2.65;;;0.90;;
59189;SDS011;50749;51.636;4.948;2022-12-20T11:45:36;2.60;;;1.20;;
59189;SDS011;50749;51.636;4.948;2022-12-20T11:53:37;1.27;;;0.75;;
59189;SDS011;50749;51.636;4.948;2022-12-20T11:56:34;2.53;;;0.82;;
59189;SDS011;50749;51.636;4.948;2022-12-20T11:59:13;2.20;;;1.15;;
59189;SDS011;50749;51.636;4.948;2022-12-20T12:02:03;1.50;;;1.00;;
59189;SDS011;50749;51.636;4.948;2022-12-20T12:04:40;1.27;;;0.70;;
59189;SDS011;50749;51.636;4.948;2022-12-20T12:07:28;2.15;;;0.70;;
59189;SDS011;50749;51.636;4.948;2022-12-20T12:15:10;2.17;;;0.80;;
59189;SDS011;50749;51.636;4.948;2022-12-20T12:17:47;1.75;;;0.77;;
59189;SDS011;50749;51.636;4.948;2022-12-20T12:22:47;2.40;;;0.80;;
59189;SDS011;50749;51.636;4.948;2022-12-20T12:25:17;2.33;;;0.70;;
59189;SDS011;50749;51.636;4.948;2022-12-20T12:27:44;2.47;;;0.80;;
59189;SDS011;50749;51.636;4.948;2022-12-20T12:30:11;7.15;;;0.90;;
59189;SDS011;50749;51.636;4.948;2022-12-20T12:46:31;1.63;;;0.80;;
59189;SDS011;50749;51.636;4.948;2022-12-20T12:49:05;2.75;;;0.77;;
59189;SDS011;50749;51.636;4.948;2022-12-20T12:51:37;3.78;;;0.90;;
59189;SDS011;50749;51.636;4.948;2022-12-20T12:56:50;1.05;;;0.50;;
59189;SDS011;50749;51.636;4.948;2022-12-20T12:59:40;2.20;;;0.70;;
59189;SDS011;50749;51.636;4.948;2022-12-20T13:09:55;1.50;;;0.90;;
59189;SDS011;50749;51.636;4.948;2022-12-20T13:17:54;1.27;;;0.63;;
59189;SDS011;50749;51.636;4.948;2022-12-20T13:33:44;4.50;;;0.80;;
59189;SDS011;50749;51.636;4.948;2022-12-20T13:43:56;7.25;;;0.70;;
59189;SDS011;50749;51.636;4.948;2022-12-20T13:46:31;1.15;;;0.70;;
59189;SDS011;50749;51.636;4.948;2022-12-20T13:49:09;3.17;;;0.80;;
59189;SDS011;50749;51.636;4.948;2022-12-20T13:51:41;1.50;;;0.60;;
59189;SDS011;50749;51.636;4.948;2022-12-20T13:54:07;4.30;;;0.68;;
59189;SDS011;50749;51.636;4.948;2022-12-20T13:56:46;1.67;;;0.80;;
59189;SDS011;50749;51.636;4.948;2022-12-20T13:59:29;2.30;;;0.75;;
59189;SDS011;50749;51.636;4.948;2022-12-20T14:01:58;3.58;;;0.80;;
59189;SDS011;50749;51.636;4.948;2022-12-20T14:04:37;1.27;;;0.50;;
59189;SDS011;50749;51.636;4.948;2022-12-20T14:07:07;1.48;;;0.68;;
59189;SDS011;50749;51.636;4.948;2022-12-20T14:09:37;2.25;;;1.00;;
59189;SDS011;50749;51.636;4.948;2022-12-20T14:12:05;1.20;;;0.57;;
59189;SDS011;50749;51.636;4.948;2022-12-20T14:14:43;1.85;;;1.10;;
59189;SDS011;50749;51.636;4.948;2022-12-20T14:17:14;1.52;;;0.80;;
59189;SDS011;50749;51.636;4.948;2022-12-20T14:20:12;1.70;;;0.82;;
59189;SDS011;50749;51.636;4.948;2022-12-20T14:25:22;1.42;;;0.82;;
59189;SDS011;50749;51.636;4.948;2022-12-20T14:27:54;4.60;;;0.90;;
59189;SDS011;50749;51.636;4.948;2022-12-20T14:30:31;1.30;;;0.60;;
59189;SDS011;50749;51.636;4.948;2022-12-20T14:33:01;3.13;;;0.80;;
59189;SDS011;50749;51.636;4.948;2022-12-20T14:35:28;2.30;;;0.68;;
59189;SDS011;50749;51.636;4.948;2022-12-20T14:37:58;2.13;;;0.70;;
59189;SDS011;50749;51.636;4.948;2022-12-20T14:40:28;1.88;;;0.80;;
59189;SDS011;50749;51.636;4.948;2022-12-20T14:42:55;1.02;;;0.70;;
59189;SDS011;50749;51.636;4.948;2022-12-20T14:45:25;2.72;;;0.75;;
59189;SDS011;50749;51.636;4.948;2022-12-20T14:48:00;1.27;;;0.80;;
59189;SDS011;50749;51.636;4.948;2022-12-20T14:50:35;1.33;;;0.60;;
59189;SDS011;50749;51.636;4.948;2022-12-20T14:53:03;2.17;;;0.90;;
59189;SDS011;50749;51.636;4.948;2022-12-20T14:55:43;1.02;;;0.63;;
59189;SDS011;50749;51.636;4.948;2022-12-20T15:03:56;6.00;;;0.85;;
59189;SDS011;50749;51.636;4.948;2022-12-20T15:06:36;1.00;;;0.70;;
59189;SDS011;50749;51.636;4.948;2022-12-20T15:09:07;1.00;;;0.60;;
59189;SDS011;50749;51.636;4.948;2022-12-20T15:11:39;1.45;;;0.73;;
59189;SDS011;50749;51.636;4.948;2022-12-20T15:16:50;1.40;;;0.70;;
59189;SDS011;50749;51.636;4.948;2022-12-20T15:19:17;3.58;;;0.70;;
59189;SDS011;50749;51.636;4.948;2022-12-20T15:21:43;0.82;;;0.43;;
59189;SDS011;50749;51.636;4.948;2022-12-20T15:24:13;1.25;;;0.65;;
59189;SDS011;50749;51.636;4.948;2022-12-20T15:26:41;0.88;;;0.52;;
59189;SDS011;50749;51.636;4.948;2022-12-20T15:29:14;1.02;;;0.60;;
59189;SDS011;50749;51.636;4.948;2022-12-20T15:31:46;1.20;;;0.60;;
59189;SDS011;50749;51.636;4.948;2022-12-20T15:36:57;1.55;;;0.60;;
59189;SDS011;50749;51.636;4.948;2022-12-20T15:39:25;2.28;;;0.73;;
59189;SDS011;50749;51.636;4.948;2022-12-20T15:41:56;1.08;;;0.50;;
59189;SDS011;50749;51.636;4.948;2022-12-20T15:44:25;1.35;;;0.70;;
59189;SDS011;50749;51.636;4.948;2022-12-20T15:46:53;1.27;;;0.57;;
59189;SDS011;50749;51.636;4.948;2022-12-20T15:49:21;2.40;;;0.80;;
59189;SDS011;50749;51.636;4.948;2022-12-20T15:51:49;2.95;;;0.88;;
59189;SDS011;50749;51.636;4.948;2022-12-20T15:54:24;1.48;;;0.60;;
59189;SDS011;50749;51.636;4.948;2022-12-20T15:56:55;1.52;;;0.55;;
59189;SDS011;50749;51.636;4.948;2022-12-20T15:59:24;1.88;;;0.93;;
59189;SDS011;50749;51.636;4.948;2022-12-20T16:01:50;1.20;;;0.70;;
59189;SDS011;50749;51.636;4.948;2022-12-20T16:04:17;2.38;;;0.88;;
59189;SDS011;50749;51.636;4.948;2022-12-20T16:06:47;1.38;;;0.70;;
59189;SDS011;50749;51.636;4.948;2022-12-20T16:09:17;1.10;;;0.57;;
59189;SDS011;50749;51.636;4.948;2022-12-20T16:11:44;1.02;;;0.50;;
59189;SDS011;50749;51.636;4.948;2022-12-20T16:14:18;1.15;;;0.63;;
59189;SDS011;50749;51.636;4.948;2022-12-20T16:16:48;1.90;;;0.60;;
59189;SDS011;50749;51.636;4.948;2022-12-20T16:19:14;1.95;;;0.50;;
59189;SDS011;50749;51.636;4.948;2022-12-20T16:21:46;0.55;;;0.50;;
59189;SDS011;50749;51.636;4.948;2022-12-20T16:24:14;2.35;;;0.70;;
59189;SDS011;50749;51.636;4.948;2022-12-20T16:26:42;1.90;;;0.70;;
59189;SDS011;50749;51.636;4.948;2022-12-20T16:29:09;1.67;;;0.70;;
59189;SDS011;50749;51.636;4.948;2022-12-20T16:31:38;1.90;;;0.82;;
59189;SDS011;50749;51.636;4.948;2022-12-20T16:34:16;0.82;;;0.55;;
59189;SDS011;50749;51.636;4.948;2022-12-20T16:36:42;1.92;;;0.65;;
59189;SDS011;50749;51.636;4.948;2022-12-20T16:39:09;1.23;;;0.55;;
59189;SDS011;50749;51.636;4.948;2022-12-20T16:41:35;2.38;;;0.65;;
59189;SDS011;50749;51.636;4.948;2022-12-20T16:44:03;2.75;;;0.80;;
59189;SDS011;50749;51.636;4.948;2022-12-20T16:46:30;2.40;;;0.52;;
59189;SDS011;50749;51.636;4.948;2022-12-20T16:48:59;5.30;;;1.50;;
59189;SDS011;50749;51.636;4.948;2022-12-20T16:51:29;3.13;;;0.70;;
59189;SDS011;50749;51.636;4.948;2022-12-20T16:54:20;1.25;;;0.65;;
59189;SDS011;50749;51.636;4.948;2022-12-20T16:56:50;3.33;;;0.73;;
59189;SDS011;50749;51.636;4.948;2022-12-20T16:59:20;1.10;;;0.60;;
59189;SDS011;50749;51.636;4.948;2022-12-20T17:01:47;1.23;;;0.52;;
59189;SDS011;50749;51.636;4.948;2022-12-20T17:04:17;3.60;;;0.70;;
59189;SDS011;50749;51.636;4.948;2022-12-20T17:06:46;1.92;;;0.70;;
59189;SDS011;50749;51.636;4.948;2022-12-20T17:09:17;1.10;;;0.43;;
59189;SDS011;50749;51.636;4.948;2022-12-20T17:11:44;4.85;;;0.70;;
59189;SDS011;50749;51.636;4.948;2022-12-20T17:14:12;3.42;;;1.75;;
59189;SDS011;50749;51.636;4.948;2022-12-20T17:16:39;1.35;;;0.43;;